createdAt,value
2023-02-20T00:05:10.043Z,7.2
2023-02-20T00:11:00.330Z,7.1
2023-02-20T00:16:51.078Z,7.1
2023-02-20T00:22:42.748Z,6.8
2023-02-20T00:28:36.872Z,6.8
2023-02-20T00:34:27.419Z,6.5
2023-02-20T00:40:21.447Z,6.6
2023-02-20T00:46:14.443Z,6.7
2023-02-20T00:52:04.570Z,6.4
2023-02-20T00:57:55.155Z,6.5
2023-02-20T01:03:48.749Z,6.3
2023-02-20T01:09:40.226Z,6.2
2023-02-20T01:15:30.777Z,6.2
2023-02-20T01:21:23.849Z,6.3
2023-02-20T01:27:14.788Z,6
2023-02-20T01:33:08.758Z,6
2023-02-20T01:39:00.780Z,6.2
2023-02-20T01:44:50.933Z,6.3
2023-02-20T01:50:42.203Z,6.4
2023-02-20T01:56:32.720Z,6.4
2023-02-20T02:02:22.581Z,6.5
2023-02-20T02:08:13.546Z,6.6
2023-02-20T02:14:04.123Z,6.6
2023-02-20T02:19:54.625Z,6.7
2023-02-20T02:25:46.903Z,6.6
2023-02-20T02:31:39.856Z,6.7
2023-02-20T02:37:30.508Z,6.8
2023-02-20T02:43:21.225Z,6.8
2023-02-20T02:49:11.302Z,6.7
2023-02-20T02:55:01.311Z,6.6
2023-02-20T03:00:52.636Z,6.7
2023-02-20T03:06:43.151Z,6.4
2023-02-20T03:12:34.460Z,6.6
2023-02-20T03:18:24.710Z,6.2
2023-02-20T03:24:14.119Z,6.3
2023-02-20T03:30:04.961Z,6.3
2023-02-20T03:35:56.723Z,6.2
2023-02-20T03:41:47.046Z,6.1
2023-02-20T03:47:37.518Z,5.8
2023-02-20T03:53:28.534Z,6
2023-02-20T03:59:19.344Z,5.8
2023-02-20T04:05:11.126Z,5.9
2023-02-20T04:11:04.413Z,5.7
2023-02-20T04:17:00.397Z,5.8
2023-02-20T04:22:50.508Z,5.7
2023-02-20T04:28:41.297Z,5.6
2023-02-20T04:34:33.318Z,5.5
2023-02-20T04:40:23.750Z,5.4
2023-02-20T04:46:14.650Z,5.4
2023-02-20T04:52:06.499Z,5.5
2023-02-20T04:59:06.815Z,5.3
2023-02-20T05:05:05.095Z,5.3
2023-02-20T05:11:14.780Z,5.4
2023-02-20T05:17:23.107Z,5.5
2023-02-20T05:29:39.691Z,5.8
2023-02-20T05:35:37.752Z,5.7
2023-02-20T05:54:12.830Z,5.2
2023-02-20T06:00:06.524Z,5.1
2023-02-20T06:06:12.787Z,5.1
2023-02-20T06:12:08.581Z,5.1
2023-02-20T06:18:06.858Z,5
2023-02-20T06:24:02.243Z,5.1
2023-02-20T06:30:11.598Z,5
2023-02-20T06:36:01.632Z,5
2023-02-20T06:48:00.788Z,4.9
2023-02-20T06:54:01.527Z,5
2023-02-20T06:59:53.627Z,4.8
2023-02-20T07:05:42.982Z,5.2
2023-02-20T07:11:35.380Z,5
2023-02-20T07:17:28.605Z,5.1
2023-02-20T07:23:17.583Z,5.3
2023-02-20T07:29:17.306Z,5.4
2023-02-20T07:35:17.819Z,5.6
2023-02-20T07:41:11.016Z,5.7
2023-02-20T07:47:03.224Z,5.8
2023-02-20T07:53:04.528Z,5.8
2023-02-20T07:59:00.801Z,5.7
2023-02-20T08:04:54.689Z,5.9
2023-02-20T08:10:47.883Z,6.1
2023-02-20T08:17:00.646Z,6.2
2023-02-20T08:22:54.814Z,6.4
2023-02-20T08:29:54.872Z,6.4
2023-02-20T08:35:47.571Z,6.8
2023-02-20T08:41:39.082Z,7.1
2023-02-20T08:47:31.246Z,7.3
2023-02-20T08:53:25.042Z,7.6
2023-02-20T08:59:20.984Z,7.6
2023-02-20T09:05:18.247Z,7.7
2023-02-20T09:11:12.101Z,7.8
2023-02-20T09:17:08.270Z,7.8
2023-02-20T09:22:59.021Z,7.9
2023-02-20T09:28:55.085Z,7.9
2023-02-20T09:34:49.671Z,7.9
2023-02-20T09:40:45.763Z,7.8
2023-02-20T09:46:36.599Z,7.8
2023-02-20T09:52:27.868Z,7.8
2023-02-20T09:58:30.430Z,7.9
2023-02-20T10:04:20.457Z,8
2023-02-20T10:10:11.478Z,8.2
2023-02-20T10:16:04.617Z,8.2
2023-02-20T10:21:56.089Z,8.4
2023-02-20T10:27:45.807Z,8.4
2023-02-20T10:33:37.340Z,8.6
2023-02-20T10:39:34.460Z,8.6
2023-02-20T10:45:27.294Z,8.7
2023-02-20T10:51:26.010Z,9
2023-02-20T10:57:17.348Z,9.1
2023-02-20T11:03:10.650Z,9.1
2023-02-20T11:09:01.846Z,9.2
2023-02-20T11:15:05.960Z,9.4
2023-02-20T11:22:09.179Z,9.5
2023-02-20T11:27:58.411Z,9.4
2023-02-20T11:33:48.779Z,9.7
2023-02-20T11:39:40.757Z,9.7
2023-02-20T11:45:30.722Z,9.9
2023-02-20T11:51:21.061Z,9.9
2023-02-20T11:57:11.478Z,10
2023-02-20T12:03:02.376Z,10.2
2023-02-20T12:08:54.671Z,10.3
2023-02-20T12:14:47.976Z,10.4
2023-02-20T12:20:38.803Z,10.8
2023-02-20T12:26:29.321Z,10.7
2023-02-20T12:32:21.728Z,11
2023-02-20T12:38:12.186Z,11.1
2023-02-20T12:44:12.723Z,11.2
2023-02-20T12:50:02.487Z,11.3
2023-02-20T12:55:52.163Z,11.4
2023-02-20T13:01:42.980Z,11.4
2023-02-20T13:07:35.573Z,11.6
2023-02-20T13:13:30.086Z,11.8
2023-02-20T13:19:20.399Z,11.9
2023-02-20T13:25:10.425Z,12
2023-02-20T13:30:59.464Z,12.1
2023-02-20T13:36:49.830Z,12.3
2023-02-20T13:42:40.364Z,12.3
2023-02-20T13:48:30.661Z,12.4
2023-02-20T13:54:21.325Z,12.4
2023-02-20T14:00:10.731Z,12.5
2023-02-20T14:06:00.560Z,12.3
2023-02-20T14:11:51.102Z,12.3
2023-02-20T14:17:39.736Z,12.1
2023-02-20T14:23:30.482Z,12.3
2023-02-20T14:29:20.451Z,12.2
2023-02-20T14:35:11.022Z,12.2
2023-02-20T14:41:01.826Z,12.4
2023-02-20T14:46:51.868Z,12.4
2023-02-20T14:52:42.725Z,12.5
2023-02-20T14:58:32.655Z,12.4
2023-02-20T15:04:23.068Z,12.4
2023-02-20T15:10:13.308Z,12.5
2023-02-20T15:16:03.876Z,12.4
2023-02-20T15:21:54.246Z,12.5
2023-02-20T15:27:44.338Z,12.5
2023-02-20T15:33:35.630Z,12.6
2023-02-20T15:39:24.901Z,12.7
2023-02-20T15:45:15.478Z,12.7
2023-02-20T15:51:06.473Z,12.6
2023-02-20T15:56:58.376Z,12.7
2023-02-20T16:02:48.717Z,12.7
2023-02-20T16:08:44.299Z,12.6
2023-02-20T16:14:34.992Z,12.4
2023-02-20T16:20:27.580Z,12.3
2023-02-20T16:26:18.561Z,11.9
2023-02-20T16:32:08.908Z,11.7
2023-02-20T16:38:01.561Z,11.3
2023-02-20T16:43:54.432Z,11
2023-02-20T16:49:49.645Z,10.7
2023-02-20T16:55:40.003Z,10.5
2023-02-20T17:01:30.546Z,10.3
2023-02-20T17:07:24.552Z,10.3
2023-02-20T17:13:15.725Z,10.1
2023-02-20T17:19:05.967Z,10
2023-02-20T17:24:55.997Z,9.6
2023-02-20T17:30:46.145Z,9.6
2023-02-20T17:36:36.116Z,9.6
2023-02-20T17:42:26.593Z,9.6
2023-02-20T17:48:16.578Z,9.4
2023-02-20T17:54:08.284Z,9.4
2023-02-20T17:59:58.112Z,9.3
2023-02-20T18:05:48.772Z,9.4
2023-02-20T18:11:38.363Z,9.3
2023-02-20T18:17:29.747Z,9.3
2023-02-20T18:23:20.718Z,9.3
2023-02-20T18:29:13.453Z,9.3
2023-02-20T18:35:03.867Z,9.5
2023-02-20T18:40:54.631Z,9.3
2023-02-20T18:46:43.151Z,9.3
2023-02-20T18:52:34.054Z,9.2
2023-02-20T18:58:24.857Z,9.4
2023-02-20T19:04:15.390Z,9.2
2023-02-20T19:10:05.391Z,9.3
2023-02-20T19:15:56.616Z,9.1
2023-02-20T19:21:46.817Z,9.2
2023-02-20T19:27:37.172Z,9.3
2023-02-20T19:33:27.414Z,9.1
2023-02-20T19:39:17.351Z,9
2023-02-20T19:45:07.276Z,8.9
2023-02-20T19:50:58.070Z,9.1
2023-02-20T19:56:49.230Z,9.2
2023-02-20T20:02:39.628Z,9.1
2023-02-20T20:08:30.634Z,9.2
2023-02-20T20:14:27.193Z,8.9
2023-02-20T20:20:17.549Z,8.8
2023-02-20T20:26:06.729Z,9
2023-02-20T20:31:56.499Z,9.1
2023-02-20T20:37:45.275Z,8.8
2023-02-20T20:43:35.998Z,9.1
2023-02-20T20:49:26.665Z,9
2023-02-20T20:55:17.057Z,9.1
2023-02-20T21:01:06.544Z,9.1
2023-02-20T21:06:58.420Z,9.1
2023-02-20T21:12:48.227Z,9.1
2023-02-20T21:18:38.923Z,9
2023-02-20T21:24:29.460Z,8.9
2023-02-20T21:30:21.706Z,9.1
2023-02-20T21:36:12.666Z,9
2023-02-20T21:42:03.218Z,9.1
2023-02-20T21:47:53.666Z,9.1
2023-02-20T21:53:43.838Z,9.2
2023-02-20T21:59:33.727Z,9.1
2023-02-20T22:05:23.337Z,8.9
2023-02-20T22:11:14.159Z,8.9
2023-02-20T22:17:05.918Z,8.8
2023-02-20T22:22:56.465Z,8.7
2023-02-20T22:28:47.161Z,8.8
2023-02-20T22:34:37.006Z,8.7
2023-02-20T22:40:27.760Z,8.9
2023-02-20T22:46:16.442Z,8.9
2023-02-20T22:52:05.587Z,9.1
2023-02-20T22:57:55.827Z,9.1
2023-02-20T23:04:54.695Z,9.1
2023-02-20T23:17:06.830Z,9.1
2023-02-20T23:35:42.277Z,8.8
2023-02-20T23:41:45.904Z,8.8
